Terminal Aerodrome Forecast
Issued by NWS

Home | Current Version | Previous Version | Text Only | Print | Product List | Glossary Off
Versions: 1 2 3 4 5 6 7 8 9 10 11 12 13 14 15 16 17

000
FTUS43 KMPX 020534
TAFAXN
TAF
KAXN 020534Z 0206/0306 18005KT P6SM FEW080 SCT150
     FM021500 18007KT P6SM VCSH FEW040 BKN150
     FM021900 19009KT P6SM BKN200=

USA.gov is the U.S. government's official web portal to all federal, state and local government web resources and services.